Details From FAEL - East London
To FACT - Cape Town International
Flight Number -
Tags Generated
Created
Modified
Stats Distance 465 nm / 861 km
Max Altitude 0 ft / 0 m
Waypoints 3
Social Downloads 0
Likes 0
Share VATSIM

Download

Looking for another format? Having issues loading an existing format? Contact us
Advertisement - Login to hide

Notes

Generated

Route

FAEL R1726 FACT

ID Type Via Altitude Latitude Longitude Leg Dist Tot Dist Heading (true) Name
O FAEL APT - 0 ft / 0 m -33.04205˚ 27.82019˚ - 0 nm - East London
R1726 FIX - 0 ft / 0 m -33.95984˚ 18.60005˚ 464 nm 464 nm 261° / 266° -
O FACT APT - 0 ft / 0 m -33.96149˚ 18.59772˚ 0 nm 465 nm 229° / 229° -

Altitude Profile

Advertisement - Login to hide

Weather


0- 5 10 15 20 25 30 35+ Temperature / ° C

Clouds and Precipitation
Forecast for 2017-12-15 18:00 UTC. Updated an hour ago

Ground ~20,000 ft ~40,000 ft Winds

FAEL

Details ICAO FAEL (ELS)
Name East London
Region South Africa
Timezone Africa/Johannesburg (UTC+2.0)
Stats Elevation 435 ft / 133 m (AMSL)
Location -33.036159° 27.823743°
Runways 2
Magnetic Variation 28.454° W

METAR

FAEL 151600Z 06015G27KT 040V100 9999 FEW023 21/15 Q1017

Decode

TAF

Not found

Departure Runways

ID Width Length Bearing (true) Bearing (mag) Surface Threshold Offset Overrun Length
06 150 ft / 46 m 5,217 ft / 1,590 m 36.65° 65.10° Asphalt 0 ft / 0 m 0 ft / 0 m
11 150 ft / 46 m 6,354 ft / 1,937 m 81.77° 110.22° Asphalt 0 ft / 0 m 0 ft / 0 m
24 150 ft / 46 m 5,217 ft / 1,590 m 216.65° 245.10° Asphalt 0 ft / 0 m 0 ft / 0 m
29 150 ft / 46 m 6,354 ft / 1,937 m 261.75° 290.20° Asphalt 0 ft / 0 m 0 ft / 0 m

FACT

Details ICAO FACT (CPT)
Name Cape Town International
Region South Africa
Timezone Africa/Johannesburg (UTC+2.0)
Stats Elevation 151 ft / 46 m (AMSL)
Location -33.970501° 18.604405°
Runways 2
Magnetic Variation 25.344° W

METAR

FACT 151600Z 19018KT CAVOK 21/14 Q1012 NOSIG

Decode

TAF

Not found

Destination Runways

ID Width Length Bearing (true) Bearing (mag) Surface Threshold Offset Overrun Length
01 200 ft / 61 m 10,527 ft / 3,209 m 345.27° 10.61° Asphalt 0 ft / 0 m 195 ft / 59 m
16 151 ft / 46 m 5,586 ft / 1,703 m 135.35° 160.69° Asphalt 300 ft / 91 m 0 ft / 0 m
19 200 ft / 61 m 10,527 ft / 3,209 m 165.27° 190.61° Asphalt 0 ft / 0 m 195 ft / 59 m
34 151 ft / 46 m 5,586 ft / 1,703 m 315.35° 340.69° Asphalt 300 ft / 91 m 0 ft / 0 m

Approach Navaids

Runway Type Ident Frequency Range Bearing (true) Bearing (mag) Slope Elevation
01 Localiser CTI 110.30 MHz 18 nm / 33 km 345.21° 10.56° - 151 ft / 46 m (AMSL)
01 Glidescope CTI 110.30 MHz 10 nm / 19 km 345.27° 10.61° 3.00° 151 ft / 46 m (AMSL)
01 DME CTI 110.30 MHz 18 nm / 33 km - - - 151 ft / 46 m (AMSL)
19 Localiser KSI 109.10 MHz 18 nm / 33 km 165.33° 190.67° - 151 ft / 46 m (AMSL)
19 Glidescope KSI 109.10 MHz 10 nm / 19 km 165.27° 190.61° 3.20° 151 ft / 46 m (AMSL)
19 DME KSI 109.10 MHz 18 nm / 33 km - - - 151 ft / 46 m (AMSL)

Popular Alternatives